Victoria Beach, Canada
Current Conditions -  °F | °C
As of 8:00 AM on Thursday 30 Oct 2014 (Local Time) from CYWG Reporting Station
Overcast Overcast  
Wind Chill: 22°   Ceiling: 2900
Heat Index: 34°   Visibility: 15mi
Dew Point: 28°   Wind: 21mph
Humidity: 81%   Direction: 350°N
Pressure: 30.22"   Gusts: NA
Location:  50.7°N, 96.53°W
Report Text: CYWG 301300Z 35018KT 15SM FEW012 OVC029 01/M02 A3022 RMK SF2SC6 SLP245
Loading
Personal Weather Stations






























Interactive Weather Map
Tropical Storm Tracking
New forecast layout! Learn more

10-Day Weather Forecast

Advertisements
Track Severe Weather on mobile